sensor_id;sensor_type;location;lat;lon;timestamp;P1;durP1;ratioP1;P2;durP2;ratioP2
69057;SDS011;56128;37.534;-122.308;2023-04-25T00:00:33;9.30;;;2.30;;
69057;SDS011;56128;37.534;-122.308;2023-04-25T00:03:00;5.97;;;2.20;;
69057;SDS011;56128;37.534;-122.308;2023-04-25T00:05:26;7.53;;;2.50;;
69057;SDS011;56128;37.534;-122.308;2023-04-25T00:07:52;9.40;;;2.25;;
69057;SDS011;56128;37.534;-122.308;2023-04-25T00:10:19;12.18;;;2.95;;
69057;SDS011;56128;37.534;-122.308;2023-04-25T00:12:46;7.18;;;2.42;;
69057;SDS011;56128;37.534;-122.308;2023-04-25T00:15:13;7.53;;;2.47;;
69057;SDS011;56128;37.534;-122.308;2023-04-25T00:17:39;8.75;;;3.00;;
69057;SDS011;56128;37.534;-122.308;2023-04-25T00:20:06;6.65;;;2.13;;
69057;SDS011;56128;37.534;-122.308;2023-04-25T00:22:36;9.70;;;2.70;;
69057;SDS011;56128;37.534;-122.308;2023-04-25T00:25:03;12.60;;;2.85;;
69057;SDS011;56128;37.534;-122.308;2023-04-25T00:27:31;12.20;;;4.00;;
69057;SDS011;56128;37.534;-122.308;2023-04-25T00:29:57;15.73;;;3.42;;
69057;SDS011;56128;37.534;-122.308;2023-04-25T00:32:24;13.27;;;3.53;;
69057;SDS011;56128;37.534;-122.308;2023-04-25T00:34:50;12.30;;;3.45;;
69057;SDS011;56128;37.534;-122.308;2023-04-25T00:37:16;9.95;;;3.10;;
69057;SDS011;56128;37.534;-122.308;2023-04-25T00:39:43;15.63;;;4.25;;
69057;SDS011;56128;37.534;-122.308;2023-04-25T00:42:09;14.18;;;3.63;;
69057;SDS011;56128;37.534;-122.308;2023-04-25T00:44:36;10.93;;;3.03;;
69057;SDS011;56128;37.534;-122.308;2023-04-25T00:47:03;12.65;;;3.22;;
69057;SDS011;56128;37.534;-122.308;2023-04-25T00:49:30;13.50;;;3.25;;
69057;SDS011;56128;37.534;-122.308;2023-04-25T00:51:56;11.52;;;3.65;;
69057;SDS011;56128;37.534;-122.308;2023-04-25T00:54:23;10.65;;;3.10;;
69057;SDS011;56128;37.534;-122.308;2023-04-25T00:56:50;10.68;;;2.97;;
69057;SDS011;56128;37.534;-122.308;2023-04-25T00:59:17;14.32;;;2.95;;
69057;SDS011;56128;37.534;-122.308;2023-04-25T01:01:44;12.80;;;2.97;;
69057;SDS011;56128;37.534;-122.308;2023-04-25T01:04:11;12.85;;;3.45;;
69057;SDS011;56128;37.534;-122.308;2023-04-25T01:06:38;14.55;;;3.40;;
69057;SDS011;56128;37.534;-122.308;2023-04-25T01:09:05;13.35;;;3.42;;
69057;SDS011;56128;37.534;-122.308;2023-04-25T01:11:32;15.40;;;4.07;;
69057;SDS011;56128;37.534;-122.308;2023-04-25T01:13:59;17.85;;;4.05;;
69057;SDS011;56128;37.534;-122.308;2023-04-25T01:16:26;17.42;;;3.63;;
69057;SDS011;56128;37.534;-122.308;2023-04-25T01:18:52;16.58;;;4.47;;
69057;SDS011;56128;37.534;-122.308;2023-04-25T01:21:19;11.73;;;3.55;;
69057;SDS011;56128;37.534;-122.308;2023-04-25T01:23:46;13.40;;;4.10;;
69057;SDS011;56128;37.534;-122.308;2023-04-25T01:26:12;16.58;;;3.63;;
69057;SDS011;56128;37.534;-122.308;2023-04-25T01:28:39;16.30;;;3.40;;
69057;SDS011;56128;37.534;-122.308;2023-04-25T01:31:09;18.05;;;3.53;;
69057;SDS011;56128;37.534;-122.308;2023-04-25T01:33:36;17.67;;;3.58;;
69057;SDS011;56128;37.534;-122.308;2023-04-25T01:36:03;17.52;;;4.38;;
69057;SDS011;56128;37.534;-122.308;2023-04-25T01:38:30;16.35;;;3.40;;
69057;SDS011;56128;37.534;-122.308;2023-04-25T01:41:16;12.50;;;3.60;;
69057;SDS011;56128;37.534;-122.308;2023-04-25T01:43:43;13.13;;;3.63;;
69057;SDS011;56128;37.534;-122.308;2023-04-25T01:46:10;22.15;;;4.20;;
69057;SDS011;56128;37.534;-122.308;2023-04-25T01:48:37;17.10;;;3.63;;
69057;SDS011;56128;37.534;-122.308;2023-04-25T01:51:03;16.10;;;3.33;;
69057;SDS011;56128;37.534;-122.308;2023-04-25T01:53:30;17.08;;;3.15;;
69057;SDS011;56128;37.534;-122.308;2023-04-25T01:55:56;12.48;;;3.17;;
69057;SDS011;56128;37.534;-122.308;2023-04-25T01:58:23;12.82;;;3.20;;
69057;SDS011;56128;37.534;-122.308;2023-04-25T02:00:49;16.73;;;3.10;;
69057;SDS011;56128;37.534;-122.308;2023-04-25T02:03:15;17.45;;;3.90;;
69057;SDS011;56128;37.534;-122.308;2023-04-25T02:05:41;13.52;;;2.97;;
69057;SDS011;56128;37.534;-122.308;2023-04-25T02:08:08;14.40;;;3.30;;
69057;SDS011;56128;37.534;-122.308;2023-04-25T02:10:35;14.95;;;3.55;;
69057;SDS011;56128;37.534;-122.308;2023-04-25T02:13:01;15.18;;;3.08;;
69057;SDS011;56128;37.534;-122.308;2023-04-25T02:15:29;13.50;;;3.00;;
69057;SDS011;56128;37.534;-122.308;2023-04-25T02:17:55;23.67;;;4.47;;
69057;SDS011;56128;37.534;-122.308;2023-04-25T02:20:23;11.07;;;2.72;;
69057;SDS011;56128;37.534;-122.308;2023-04-25T02:22:50;15.82;;;3.58;;
69057;SDS011;56128;37.534;-122.308;2023-04-25T02:25:17;16.23;;;2.97;;
69057;SDS011;56128;37.534;-122.308;2023-04-25T02:27:45;19.83;;;4.03;;
69057;SDS011;56128;37.534;-122.308;2023-04-25T02:30:12;13.88;;;3.55;;
69057;SDS011;56128;37.534;-122.308;2023-04-25T02:32:39;20.58;;;3.30;;
69057;SDS011;56128;37.534;-122.308;2023-04-25T02:35:06;17.23;;;3.67;;
69057;SDS011;56128;37.534;-122.308;2023-04-25T02:37:33;15.95;;;3.55;;
69057;SDS011;56128;37.534;-122.308;2023-04-25T02:40:00;10.50;;;3.20;;
69057;SDS011;56128;37.534;-122.308;2023-04-25T02:42:28;13.75;;;3.22;;
69057;SDS011;56128;37.534;-122.308;2023-04-25T02:44:54;18.65;;;3.28;;
69057;SDS011;56128;37.534;-122.308;2023-04-25T02:47:20;15.23;;;4.22;;
69057;SDS011;56128;37.534;-122.308;2023-04-25T02:49:47;26.50;;;3.50;;
69057;SDS011;56128;37.534;-122.308;2023-04-25T02:52:13;15.45;;;3.13;;
69057;SDS011;56128;37.534;-122.308;2023-04-25T02:54:40;14.57;;;3.05;;
69057;SDS011;56128;37.534;-122.308;2023-04-25T02:57:06;17.42;;;3.13;;
69057;SDS011;56128;37.534;-122.308;2023-04-25T02:59:33;17.20;;;2.55;;
69057;SDS011;56128;37.534;-122.308;2023-04-25T03:02:00;12.73;;;3.17;;
69057;SDS011;56128;37.534;-122.308;2023-04-25T03:04:27;15.25;;;3.47;;
69057;SDS011;56128;37.534;-122.308;2023-04-25T03:06:53;14.13;;;3.25;;
69057;SDS011;56128;37.534;-122.308;2023-04-25T03:09:19;17.70;;;3.58;;
69057;SDS011;56128;37.534;-122.308;2023-04-25T03:11:45;15.27;;;3.10;;
69057;SDS011;56128;37.534;-122.308;2023-04-25T03:14:12;14.65;;;3.35;;
69057;SDS011;56128;37.534;-122.308;2023-04-25T03:16:39;12.18;;;3.10;;
69057;SDS011;56128;37.534;-122.308;2023-04-25T03:19:05;20.05;;;3.35;;
69057;SDS011;56128;37.534;-122.308;2023-04-25T03:21:32;15.18;;;3.10;;
69057;SDS011;56128;37.534;-122.308;2023-04-25T03:24:02;17.65;;;4.13;;
69057;SDS011;56128;37.534;-122.308;2023-04-25T03:26:29;11.70;;;2.40;;
69057;SDS011;56128;37.534;-122.308;2023-04-25T03:28:55;20.38;;;3.13;;
69057;SDS011;56128;37.534;-122.308;2023-04-25T03:31:22;24.55;;;3.92;;
69057;SDS011;56128;37.534;-122.308;2023-04-25T03:33:48;15.05;;;2.97;;
69057;SDS011;56128;37.534;-122.308;2023-04-25T03:36:14;17.92;;;3.50;;
69057;SDS011;56128;37.534;-122.308;2023-04-25T03:38:40;16.75;;;3.42;;
69057;SDS011;56128;37.534;-122.308;2023-04-25T03:41:07;18.20;;;3.60;;
69057;SDS011;56128;37.534;-122.308;2023-04-25T03:43:33;17.30;;;3.65;;
69057;SDS011;56128;37.534;-122.308;2023-04-25T03:46:00;20.27;;;3.63;;
69057;SDS011;56128;37.534;-122.308;2023-04-25T03:48:26;17.50;;;3.38;;
69057;SDS011;56128;37.534;-122.308;2023-04-25T03:50:53;16.40;;;3.38;;
69057;SDS011;56128;37.534;-122.308;2023-04-25T03:53:20;16.85;;;3.47;;
69057;SDS011;56128;37.534;-122.308;2023-04-25T03:55:46;16.23;;;3.95;;
69057;SDS011;56128;37.534;-122.308;2023-04-25T03:58:12;18.42;;;3.28;;
69057;SDS011;56128;37.534;-122.308;2023-04-25T04:00:38;19.58;;;3.80;;
69057;SDS011;56128;37.534;-122.308;2023-04-25T04:03:05;21.95;;;3.85;;
69057;SDS011;56128;37.534;-122.308;2023-04-25T04:05:31;19.15;;;3.35;;
69057;SDS011;56128;37.534;-122.308;2023-04-25T04:07:57;16.20;;;4.03;;
69057;SDS011;56128;37.534;-122.308;2023-04-25T04:10:24;18.17;;;3.67;;
69057;SDS011;56128;37.534;-122.308;2023-04-25T04:12:51;18.10;;;3.72;;
69057;SDS011;56128;37.534;-122.308;2023-04-25T04:15:17;21.63;;;3.17;;
69057;SDS011;56128;37.534;-122.308;2023-04-25T04:17:44;17.02;;;3.60;;
69057;SDS011;56128;37.534;-122.308;2023-04-25T04:20:10;18.65;;;3.30;;
69057;SDS011;56128;37.534;-122.308;2023-04-25T04:22:37;20.55;;;3.95;;
69057;SDS011;56128;37.534;-122.308;2023-04-25T04:25:03;21.35;;;4.15;;
69057;SDS011;56128;37.534;-122.308;2023-04-25T04:27:31;19.58;;;3.58;;
69057;SDS011;56128;37.534;-122.308;2023-04-25T04:29:58;23.60;;;3.90;;
69057;SDS011;56128;37.534;-122.308;2023-04-25T04:32:24;18.38;;;3.53;;
69057;SDS011;56128;37.534;-122.308;2023-04-25T04:34:50;17.63;;;3.33;;
69057;SDS011;56128;37.534;-122.308;2023-04-25T04:37:17;16.85;;;3.83;;
69057;SDS011;56128;37.534;-122.308;2023-04-25T04:39:44;17.60;;;2.60;;
69057;SDS011;56128;37.534;-122.308;2023-04-25T04:42:10;28.65;;;4.68;;
69057;SDS011;56128;37.534;-122.308;2023-04-25T04:44:36;20.17;;;3.75;;
69057;SDS011;56128;37.534;-122.308;2023-04-25T04:47:04;21.20;;;4.45;;
69057;SDS011;56128;37.534;-122.308;2023-04-25T04:49:31;23.08;;;4.10;;
69057;SDS011;56128;37.534;-122.308;2023-04-25T04:51:58;17.60;;;3.85;;
69057;SDS011;56128;37.534;-122.308;2023-04-25T04:54:44;22.48;;;3.90;;
69057;SDS011;56128;37.534;-122.308;2023-04-25T04:57:10;19.77;;;3.00;;
69057;SDS011;56128;37.534;-122.308;2023-04-25T04:59:37;17.00;;;3.47;;
69057;SDS011;56128;37.534;-122.308;2023-04-25T05:02:03;14.15;;;3.28;;
69057;SDS011;56128;37.534;-122.308;2023-04-25T05:04:29;21.25;;;3.60;;
69057;SDS011;56128;37.534;-122.308;2023-04-25T05:06:55;15.85;;;3.55;;
69057;SDS011;56128;37.534;-122.308;2023-04-25T05:09:22;19.05;;;3.88;;
69057;SDS011;56128;37.534;-122.308;2023-04-25T05:11:51;19.85;;;3.13;;
69057;SDS011;56128;37.534;-122.308;2023-04-25T05:14:17;21.80;;;3.65;;
69057;SDS011;56128;37.534;-122.308;2023-04-25T05:16:43;21.85;;;3.58;;
69057;SDS011;56128;37.534;-122.308;2023-04-25T05:19:09;22.85;;;3.58;;
69057;SDS011;56128;37.534;-122.308;2023-04-25T05:21:36;22.42;;;4.68;;
69057;SDS011;56128;37.534;-122.308;2023-04-25T05:24:02;22.98;;;4.22;;
69057;SDS011;56128;37.534;-122.308;2023-04-25T05:26:28;18.83;;;4.00;;
69057;SDS011;56128;37.534;-122.308;2023-04-25T05:28:56;18.35;;;3.72;;
69057;SDS011;56128;37.534;-122.308;2023-04-25T05:31:23;25.65;;;3.72;;
69057;SDS011;56128;37.534;-122.308;2023-04-25T05:33:49;17.95;;;4.22;;
69057;SDS011;56128;37.534;-122.308;2023-04-25T05:36:15;22.13;;;3.85;;
69057;SDS011;56128;37.534;-122.308;2023-04-25T05:38:42;22.25;;;4.60;;
69057;SDS011;56128;37.534;-122.308;2023-04-25T05:41:08;18.75;;;3.88;;
69057;SDS011;56128;37.534;-122.308;2023-04-25T05:43:34;22.10;;;3.97;;
69057;SDS011;56128;37.534;-122.308;2023-04-25T05:46:00;16.40;;;3.80;;
69057;SDS011;56128;37.534;-122.308;2023-04-25T05:48:27;23.10;;;3.92;;
69057;SDS011;56128;37.534;-122.308;2023-04-25T05:50:53;19.92;;;3.38;;
69057;SDS011;56128;37.534;-122.308;2023-04-25T05:53:20;21.50;;;4.72;;
69057;SDS011;56128;37.534;-122.308;2023-04-25T05:55:47;19.08;;;4.00;;
69057;SDS011;56128;37.534;-122.308;2023-04-25T05:58:13;28.15;;;4.40;;
69057;SDS011;56128;37.534;-122.308;2023-04-25T06:00:39;20.27;;;3.38;;
69057;SDS011;56128;37.534;-122.308;2023-04-25T06:03:06;18.88;;;3.50;;
69057;SDS011;56128;37.534;-122.308;2023-04-25T06:05:35;23.65;;;4.20;;
69057;SDS011;56128;37.534;-122.308;2023-04-25T06:08:01;20.10;;;4.65;;
69057;SDS011;56128;37.534;-122.308;2023-04-25T06:10:28;17.15;;;3.75;;
69057;SDS011;56128;37.534;-122.308;2023-04-25T06:12:54;23.88;;;3.95;;
69057;SDS011;56128;37.534;-122.308;2023-04-25T06:15:20;17.33;;;3.25;;
69057;SDS011;56128;37.534;-122.308;2023-04-25T06:17:46;27.33;;;4.32;;
69057;SDS011;56128;37.534;-122.308;2023-04-25T06:20:14;27.60;;;5.45;;
69057;SDS011;56128;37.534;-122.308;2023-04-25T06:22:40;21.92;;;3.80;;
69057;SDS011;56128;37.534;-122.308;2023-04-25T06:25:06;21.00;;;3.90;;
69057;SDS011;56128;37.534;-122.308;2023-04-25T06:27:33;20.67;;;3.75;;
69057;SDS011;56128;37.534;-122.308;2023-04-25T06:29:59;24.73;;;3.70;;
69057;SDS011;56128;37.534;-122.308;2023-04-25T06:32:26;30.60;;;5.18;;
69057;SDS011;56128;37.534;-122.308;2023-04-25T06:34:53;23.63;;;4.13;;
69057;SDS011;56128;37.534;-122.308;2023-04-25T06:37:20;20.05;;;3.75;;
69057;SDS011;56128;37.534;-122.308;2023-04-25T06:39:46;25.15;;;3.80;;
69057;SDS011;56128;37.534;-122.308;2023-04-25T06:42:12;22.63;;;3.72;;
69057;SDS011;56128;37.534;-122.308;2023-04-25T06:44:38;22.55;;;3.60;;
69057;SDS011;56128;37.534;-122.308;2023-04-25T06:47:05;28.63;;;4.47;;
69057;SDS011;56128;37.534;-122.308;2023-04-25T06:49:31;19.65;;;4.20;;
69057;SDS011;56128;37.534;-122.308;2023-04-25T06:51:57;27.52;;;5.15;;
69057;SDS011;56128;37.534;-122.308;2023-04-25T06:54:23;27.42;;;4.57;;
69057;SDS011;56128;37.534;-122.308;2023-04-25T06:56:52;23.15;;;4.00;;
69057;SDS011;56128;37.534;-122.308;2023-04-25T06:59:19;19.13;;;3.35;;
69057;SDS011;56128;37.534;-122.308;2023-04-25T07:01:45;21.02;;;4.63;;
69057;SDS011;56128;37.534;-122.308;2023-04-25T07:04:11;24.48;;;4.25;;
69057;SDS011;56128;37.534;-122.308;2023-04-25T07:06:38;26.90;;;5.22;;
69057;SDS011;56128;37.534;-122.308;2023-04-25T07:09:08;24.50;;;4.43;;
69057;SDS011;56128;37.534;-122.308;2023-04-25T07:11:38;29.20;;;4.72;;
69057;SDS011;56128;37.534;-122.308;2023-04-25T07:14:04;24.83;;;3.67;;
69057;SDS011;56128;37.534;-122.308;2023-04-25T07:16:30;22.30;;;4.30;;
69057;SDS011;56128;37.534;-122.308;2023-04-25T07:18:57;33.40;;;4.88;;
69057;SDS011;56128;37.534;-122.308;2023-04-25T07:21:24;29.10;;;4.25;;
69057;SDS011;56128;37.534;-122.308;2023-04-25T07:23:51;22.20;;;3.65;;
69057;SDS011;56128;37.534;-122.308;2023-04-25T07:26:17;14.85;;;3.75;;
69057;SDS011;56128;37.534;-122.308;2023-04-25T07:28:43;26.88;;;4.97;;
69057;SDS011;56128;37.534;-122.308;2023-04-25T07:31:11;20.10;;;4.40;;
69057;SDS011;56128;37.534;-122.308;2023-04-25T07:33:37;24.23;;;4.20;;
69057;SDS011;56128;37.534;-122.308;2023-04-25T07:36:03;21.77;;;4.25;;
69057;SDS011;56128;37.534;-122.308;2023-04-25T07:38:30;26.00;;;4.65;;
69057;SDS011;56128;37.534;-122.308;2023-04-25T07:40:56;28.25;;;4.05;;
69057;SDS011;56128;37.534;-122.308;2023-04-25T07:43:22;28.33;;;5.78;;
69057;SDS011;56128;37.534;-122.308;2023-04-25T07:45:48;20.55;;;4.18;;
69057;SDS011;56128;37.534;-122.308;2023-04-25T07:48:18;20.48;;;3.53;;
69057;SDS011;56128;37.534;-122.308;2023-04-25T07:50:45;16.75;;;4.30;;
69057;SDS011;56128;37.534;-122.308;2023-04-25T07:53:11;26.38;;;4.82;;
69057;SDS011;56128;37.534;-122.308;2023-04-25T07:55:37;18.90;;;4.13;;
69057;SDS011;56128;37.534;-122.308;2023-04-25T07:58:08;30.00;;;4.55;;
69057;SDS011;56128;37.534;-122.308;2023-04-25T08:00:35;27.58;;;3.90;;
69057;SDS011;56128;37.534;-122.308;2023-04-25T08:03:02;20.13;;;4.35;;
69057;SDS011;56128;37.534;-122.308;2023-04-25T08:05:28;21.75;;;3.78;;
69057;SDS011;56128;37.534;-122.308;2023-04-25T08:07:55;26.45;;;4.25;;
69057;SDS011;56128;37.534;-122.308;2023-04-25T08:10:22;27.27;;;4.45;;
69057;SDS011;56128;37.534;-122.308;2023-04-25T08:12:48;29.42;;;5.13;;
69057;SDS011;56128;37.534;-122.308;2023-04-25T08:15:15;19.70;;;4.32;;
69057;SDS011;56128;37.534;-122.308;2023-04-25T08:17:41;16.13;;;3.72;;
69057;SDS011;56128;37.534;-122.308;2023-04-25T08:20:09;18.00;;;3.65;;
69057;SDS011;56128;37.534;-122.308;2023-04-25T08:22:36;17.65;;;3.70;;
69057;SDS011;56128;37.534;-122.308;2023-04-25T08:25:02;13.38;;;3.42;;
69057;SDS011;56128;37.534;-122.308;2023-04-25T08:27:29;18.23;;;3.85;;
69057;SDS011;56128;37.534;-122.308;2023-04-25T08:29:55;13.82;;;3.60;;
69057;SDS011;56128;37.534;-122.308;2023-04-25T08:32:21;24.25;;;3.83;;
69057;SDS011;56128;37.534;-122.308;2023-04-25T08:34:47;25.38;;;3.72;;
69057;SDS011;56128;37.534;-122.308;2023-04-25T08:37:14;22.08;;;3.35;;
69057;SDS011;56128;37.534;-122.308;2023-04-25T08:39:40;20.40;;;4.00;;
69057;SDS011;56128;37.534;-122.308;2023-04-25T08:42:07;20.33;;;3.53;;
69057;SDS011;56128;37.534;-122.308;2023-04-25T08:44:33;22.33;;;3.70;;
69057;SDS011;56128;37.534;-122.308;2023-04-25T08:47:03;25.90;;;5.55;;
69057;SDS011;56128;37.534;-122.308;2023-04-25T08:49:33;35.65;;;4.43;;
69057;SDS011;56128;37.534;-122.308;2023-04-25T08:52:02;20.52;;;4.40;;
69057;SDS011;56128;37.534;-122.308;2023-04-25T08:54:31;22.27;;;3.75;;
69057;SDS011;56128;37.534;-122.308;2023-04-25T08:56:57;25.13;;;4.22;;
69057;SDS011;56128;37.534;-122.308;2023-04-25T08:59:30;27.83;;;3.97;;
69057;SDS011;56128;37.534;-122.308;2023-04-25T09:01:57;27.77;;;3.92;;
69057;SDS011;56128;37.534;-122.308;2023-04-25T09:04:24;24.60;;;4.70;;
69057;SDS011;56128;37.534;-122.308;2023-04-25T09:06:51;22.35;;;4.43;;
69057;SDS011;56128;37.534;-122.308;2023-04-25T09:09:17;26.85;;;3.78;;
69057;SDS011;56128;37.534;-122.308;2023-04-25T09:11:43;19.52;;;3.33;;
69057;SDS011;56128;37.534;-122.308;2023-04-25T09:14:16;20.08;;;3.88;;
69057;SDS011;56128;37.534;-122.308;2023-04-25T09:16:57;25.23;;;4.20;;
69057;SDS011;56128;37.534;-122.308;2023-04-25T09:19:29;26.90;;;4.55;;
69057;SDS011;56128;37.534;-122.308;2023-04-25T09:21:57;23.52;;;4.78;;
69057;SDS011;56128;37.534;-122.308;2023-04-25T09:24:37;31.60;;;5.05;;
69057;SDS011;56128;37.534;-122.308;2023-04-25T09:27:04;27.55;;;5.07;;
69057;SDS011;56128;37.534;-122.308;2023-04-25T09:29:36;21.02;;;4.00;;
69057;SDS011;56128;37.534;-122.308;2023-04-25T09:32:23;23.90;;;4.28;;
69057;SDS011;56128;37.534;-122.308;2023-04-25T09:34:50;19.63;;;4.25;;
69057;SDS011;56128;37.534;-122.308;2023-04-25T09:37:24;17.70;;;3.45;;
69057;SDS011;56128;37.534;-122.308;2023-04-25T09:39:54;25.33;;;4.22;;
69057;SDS011;56128;37.534;-122.308;2023-04-25T09:42:25;28.40;;;4.13;;
69057;SDS011;56128;37.534;-122.308;2023-04-25T09:44:54;22.00;;;4.25;;
69057;SDS011;56128;37.534;-122.308;2023-04-25T09:47:22;20.50;;;3.90;;
69057;SDS011;56128;37.534;-122.308;2023-04-25T09:49:50;16.77;;;4.07;;
69057;SDS011;56128;37.534;-122.308;2023-04-25T09:52:18;24.23;;;4.13;;
69057;SDS011;56128;37.534;-122.308;2023-04-25T09:54:46;21.33;;;4.50;;
69057;SDS011;56128;37.534;-122.308;2023-04-25T09:57:14;22.75;;;4.63;;
69057;SDS011;56128;37.534;-122.308;2023-04-25T09:59:45;28.27;;;4.97;;
69057;SDS011;56128;37.534;-122.308;2023-04-25T10:02:16;24.88;;;4.25;;
69057;SDS011;56128;37.534;-122.308;2023-04-25T10:04:50;19.52;;;4.95;;
69057;SDS011;56128;37.534;-122.308;2023-04-25T10:07:23;27.17;;;3.85;;
69057;SDS011;56128;37.534;-122.308;2023-04-25T10:09:54;24.98;;;4.45;;
69057;SDS011;56128;37.534;-122.308;2023-04-25T10:12:28;30.25;;;5.40;;
69057;SDS011;56128;37.534;-122.308;2023-04-25T10:14:57;19.52;;;4.70;;
69057;SDS011;56128;37.534;-122.308;2023-04-25T10:17:24;18.48;;;3.67;;
69057;SDS011;56128;37.534;-122.308;2023-04-25T10:19:52;22.02;;;4.18;;
69057;SDS011;56128;37.534;-122.308;2023-04-25T10:22:35;29.13;;;4.00;;
69057;SDS011;56128;37.534;-122.308;2023-04-25T10:25:05;23.42;;;4.45;;
69057;SDS011;56128;37.534;-122.308;2023-04-25T10:27:33;32.35;;;4.22;;
69057;SDS011;56128;37.534;-122.308;2023-04-25T10:30:01;26.02;;;3.90;;
69057;SDS011;56128;37.534;-122.308;2023-04-25T10:35:16;22.58;;;4.15;;
69057;SDS011;56128;37.534;-122.308;2023-04-25T10:40:36;30.88;;;5.07;;
69057;SDS011;56128;37.534;-122.308;2023-04-25T10:45:56;29.58;;;4.30;;
69057;SDS011;56128;37.534;-122.308;2023-04-25T10:48:25;26.83;;;4.53;;
69057;SDS011;56128;37.534;-122.308;2023-04-25T10:51:08;20.88;;;3.53;;
69057;SDS011;56128;37.534;-122.308;2023-04-25T10:53:41;22.40;;;4.13;;
69057;SDS011;56128;37.534;-122.308;2023-04-25T10:56:09;20.50;;;3.65;;
69057;SDS011;56128;37.534;-122.308;2023-04-25T10:58:45;13.48;;;3.40;;
69057;SDS011;56128;37.534;-122.308;2023-04-25T11:01:13;16.23;;;3.47;;
69057;SDS011;56128;37.534;-122.308;2023-04-25T11:03:40;19.25;;;3.78;;
69057;SDS011;56128;37.534;-122.308;2023-04-25T11:06:23;33.13;;;4.30;;
69057;SDS011;56128;37.534;-122.308;2023-04-25T11:09:02;25.65;;;4.82;;
69057;SDS011;56128;37.534;-122.308;2023-04-25T11:11:36;25.17;;;3.10;;
69057;SDS011;56128;37.534;-122.308;2023-04-25T11:14:02;28.50;;;4.63;;
69057;SDS011;56128;37.534;-122.308;2023-04-25T11:16:28;25.38;;;4.03;;
69057;SDS011;56128;37.534;-122.308;2023-04-25T11:18:59;19.50;;;4.32;;
69057;SDS011;56128;37.534;-122.308;2023-04-25T11:21:25;14.55;;;3.15;;
69057;SDS011;56128;37.534;-122.308;2023-04-25T11:23:53;24.25;;;3.35;;
69057;SDS011;56128;37.534;-122.308;2023-04-25T11:26:22;28.02;;;5.40;;
69057;SDS011;56128;37.534;-122.308;2023-04-25T11:28:49;25.25;;;3.72;;
69057;SDS011;56128;37.534;-122.308;2023-04-25T11:31:16;23.33;;;3.60;;
69057;SDS011;56128;37.534;-122.308;2023-04-25T11:33:46;19.45;;;3.55;;
69057;SDS011;56128;37.534;-122.308;2023-04-25T11:36:12;28.42;;;4.53;;
69057;SDS011;56128;37.534;-122.308;2023-04-25T11:38:39;25.50;;;4.18;;
69057;SDS011;56128;37.534;-122.308;2023-04-25T11:41:05;19.17;;;3.72;;
69057;SDS011;56128;37.534;-122.308;2023-04-25T11:43:32;24.40;;;3.90;;
69057;SDS011;56128;37.534;-122.308;2023-04-25T11:45:58;25.90;;;4.05;;
69057;SDS011;56128;37.534;-122.308;2023-04-25T11:48:25;19.40;;;4.85;;
69057;SDS011;56128;37.534;-122.308;2023-04-25T11:50:51;17.52;;;3.72;;
69057;SDS011;56128;37.534;-122.308;2023-04-25T11:53:17;18.83;;;4.03;;
69057;SDS011;56128;37.534;-122.308;2023-04-25T11:55:43;16.48;;;3.42;;
69057;SDS011;56128;37.534;-122.308;2023-04-25T11:58:10;23.70;;;3.40;;
69057;SDS011;56128;37.534;-122.308;2023-04-25T12:00:39;14.25;;;3.28;;
69057;SDS011;56128;37.534;-122.308;2023-04-25T12:03:08;18.17;;;4.53;;
69057;SDS011;56128;37.534;-122.308;2023-04-25T12:05:35;20.05;;;3.83;;
69057;SDS011;56128;37.534;-122.308;2023-04-25T12:08:09;19.58;;;3.60;;
69057;SDS011;56128;37.534;-122.308;2023-04-25T12:10:40;18.23;;;3.00;;
69057;SDS011;56128;37.534;-122.308;2023-04-25T12:13:20;12.93;;;2.90;;
69057;SDS011;56128;37.534;-122.308;2023-04-25T12:15:53;15.70;;;3.15;;
69057;SDS011;56128;37.534;-122.308;2023-04-25T12:18:22;17.90;;;2.90;;
69057;SDS011;56128;37.534;-122.308;2023-04-25T12:20:52;15.45;;;3.05;;
69057;SDS011;56128;37.534;-122.308;2023-04-25T12:23:25;17.10;;;3.10;;
69057;SDS011;56128;37.534;-122.308;2023-04-25T12:25:53;15.43;;;2.47;;
69057;SDS011;56128;37.534;-122.308;2023-04-25T12:28:23;15.00;;;3.45;;
69057;SDS011;56128;37.534;-122.308;2023-04-25T12:30:56;15.98;;;2.90;;
69057;SDS011;56128;37.534;-122.308;2023-04-25T12:33:28;17.45;;;2.83;;
69057;SDS011;56128;37.534;-122.308;2023-04-25T12:35:55;18.95;;;3.75;;
69057;SDS011;56128;37.534;-122.308;2023-04-25T12:38:26;17.65;;;3.70;;
69057;SDS011;56128;37.534;-122.308;2023-04-25T12:40:59;16.35;;;3.03;;
69057;SDS011;56128;37.534;-122.308;2023-04-25T12:43:25;17.23;;;2.95;;
69057;SDS011;56128;37.534;-122.308;2023-04-25T12:45:52;16.08;;;3.10;;
69057;SDS011;56128;37.534;-122.308;2023-04-25T12:48:20;14.95;;;4.00;;
69057;SDS011;56128;37.534;-122.308;2023-04-25T12:50:47;22.08;;;2.90;;
69057;SDS011;56128;37.534;-122.308;2023-04-25T12:53:14;13.43;;;3.80;;
69057;SDS011;56128;37.534;-122.308;2023-04-25T12:55:42;13.75;;;3.40;;
69057;SDS011;56128;37.534;-122.308;2023-04-25T12:58:11;17.38;;;3.47;;
69057;SDS011;56128;37.534;-122.308;2023-04-25T13:00:38;20.75;;;3.72;;
69057;SDS011;56128;37.534;-122.308;2023-04-25T13:03:04;12.15;;;2.75;;
69057;SDS011;56128;37.534;-122.308;2023-04-25T13:05:31;12.93;;;3.10;;
69057;SDS011;56128;37.534;-122.308;2023-04-25T13:07:57;13.30;;;3.13;;
69057;SDS011;56128;37.534;-122.308;2023-04-25T13:10:24;10.98;;;2.70;;
69057;SDS011;56128;37.534;-122.308;2023-04-25T13:12:51;21.20;;;3.35;;
69057;SDS011;56128;37.534;-122.308;2023-04-25T13:15:17;16.70;;;3.05;;
69057;SDS011;56128;37.534;-122.308;2023-04-25T13:17:43;11.95;;;2.97;;
69057;SDS011;56128;37.534;-122.308;2023-04-25T13:20:09;19.13;;;3.42;;
69057;SDS011;56128;37.534;-122.308;2023-04-25T13:22:39;16.95;;;3.80;;
69057;SDS011;56128;37.534;-122.308;2023-04-25T13:25:06;17.95;;;2.88;;
69057;SDS011;56128;37.534;-122.308;2023-04-25T13:27:34;15.90;;;3.83;;
69057;SDS011;56128;37.534;-122.308;2023-04-25T13:30:03;17.75;;;3.15;;
69057;SDS011;56128;37.534;-122.308;2023-04-25T13:32:36;19.77;;;2.92;;
69057;SDS011;56128;37.534;-122.308;2023-04-25T13:35:03;17.80;;;2.95;;
69057;SDS011;56128;37.534;-122.308;2023-04-25T13:37:31;12.10;;;3.10;;
69057;SDS011;56128;37.534;-122.308;2023-04-25T13:40:04;19.92;;;3.38;;
69057;SDS011;56128;37.534;-122.308;2023-04-25T13:42:34;17.33;;;3.45;;
69057;SDS011;56128;37.534;-122.308;2023-04-25T13:45:01;16.98;;;3.17;;
69057;SDS011;56128;37.534;-122.308;2023-04-25T13:47:28;15.73;;;3.20;;
69057;SDS011;56128;37.534;-122.308;2023-04-25T13:49:55;23.63;;;3.40;;
69057;SDS011;56128;37.534;-122.308;2023-04-25T13:52:22;15.82;;;3.35;;
69057;SDS011;56128;37.534;-122.308;2023-04-25T13:54:51;16.45;;;3.47;;
69057;SDS011;56128;37.534;-122.308;2023-04-25T13:57:17;12.65;;;2.90;;
69057;SDS011;56128;37.534;-122.308;2023-04-25T13:59:44;23.65;;;3.50;;
69057;SDS011;56128;37.534;-122.308;2023-04-25T14:02:11;21.30;;;4.15;;
69057;SDS011;56128;37.534;-122.308;2023-04-25T14:04:38;21.15;;;4.07;;
69057;SDS011;56128;37.534;-122.308;2023-04-25T14:07:04;21.98;;;4.18;;